Time;durP1;ratioP1;P1;durP2;ratioP2;P2;SDS_P1;SDS_P2;PMS_P1;PMS_P2;Temp;Humidity;BMP_temperature;BMP_pressure;BME280_temperature;BME280_humidity;BME280_pressure;Samples;Min_cycle;Max_cycle;Signal;HPM_P1;HPM_P2
2022/06/13 00:00:49;;;;;;;0.00;0.00;;;;;;;;;;5030815;28;20084;-64
2022/06/13 00:03:14;;;;;;;0.25;0.00;;;;;;;;;;5030191;28;20053;-64
2022/06/13 00:05:40;;;;;;;12.10;10.98;;;;;;;;;;5030926;28;20021;-64
2022/06/13 00:08:05;;;;;;;0.28;0.28;;;;;;;;;;5030645;28;20020;-64
2022/06/13 00:10:31;;;;;;;0.00;0.00;;;;;;;;;;5030067;28;20021;-63
2022/06/13 00:12:56;;;;;;;0.00;0.00;;;;;;;;;;5030647;28;20025;-64
2022/06/13 00:15:21;;;;;;;0.00;0.00;;;;;;;;;;5029233;28;20365;-63
2022/06/13 00:17:46;;;;;;;0.00;0.00;;;;;;;;;;5030395;28;20449;-64
2022/06/13 00:20:12;;;;;;;0.00;0.00;;;;;;;;;;5030716;28;20029;-64
2022/06/13 00:22:37;;;;;;;0.00;0.00;;;;;;;;;;5029783;28;20100;-64
2022/06/13 00:25:03;;;;;;;0.47;0.43;;;;;;;;;;5030097;28;20036;-63
2022/06/13 00:27:28;;;;;;;0.00;0.00;;;;;;;;;;5030454;28;20020;-64
2022/06/13 00:29:53;;;;;;;0.00;0.00;;;;;;;;;;5030210;28;20417;-64
2022/06/13 00:32:19;;;;;;;0.00;0.00;;;;;;;;;;5029650;28;20919;-65
2022/06/13 00:34:44;;;;;;;0.20;0.20;;;;;;;;;;5030296;28;20032;-63
2022/06/13 00:37:10;;;;;;;1.55;1.10;;;;;;;;;;5030076;28;20104;-64
2022/06/13 00:39:35;;;;;;;0.00;0.00;;;;;;;;;;5029654;28;20105;-63
2022/06/13 00:42:01;;;;;;;0.10;0.00;;;;;;;;;;5029942;28;20025;-64
2022/06/13 00:44:28;;;;;;;0.30;0.30;;;;;;;;;;5029791;28;20079;-63
2022/06/13 00:46:54;;;;;;;0.00;0.00;;;;;;;;;;5030264;28;20374;-64
2022/06/13 00:49:21;;;;;;;0.00;0.00;;;;;;;;;;5030620;28;20029;-64
2022/06/13 00:51:48;;;;;;;0.00;0.00;;;;;;;;;;5028585;28;20504;-65
2022/06/13 00:54:14;;;;;;;0.00;0.00;;;;;;;;;;5030279;28;20040;-66
2022/06/13 00:56:40;;;;;;;0.00;0.00;;;;;;;;;;5029777;28;20036;-62
2022/06/13 00:59:09;;;;;;;2.72;0.43;;;;;;;;;;5028061;28;20050;-63
2022/06/13 01:01:34;;;;;;;0.00;0.00;;;;;;;;;;5028073;28;21491;-64
2022/06/13 01:04:02;;;;;;;0.00;0.00;;;;;;;;;;5029833;28;20025;-63
2022/06/13 01:06:29;;;;;;;0.00;0.00;;;;;;;;;;5029503;28;20017;-62
2022/06/13 01:08:55;;;;;;;0.00;0.00;;;;;;;;;;5029851;28;20382;-63
2022/06/13 01:11:22;;;;;;;0.00;0.00;;;;;;;;;;5029792;28;20039;-63
2022/06/13 01:13:53;;;;;;;0.05;0.05;;;;;;;;;;5029907;28;20021;-66
2022/06/13 01:16:18;;;;;;;0.40;0.40;;;;;;;;;;5028936;28;20017;-62
2022/06/13 01:19:02;;;;;;;0.47;0.47;;;;;;;;;;5028368;28;20036;-62
2022/06/13 01:21:27;;;;;;;0.00;0.00;;;;;;;;;;5024762;28;20462;-63
2022/06/13 01:24:03;;;;;;;0.10;0.10;;;;;;;;;;5028048;28;20013;-62
2022/06/13 01:26:39;;;;;;;2.55;2.45;;;;;;;;;;5028553;28;20765;-62
2022/06/13 01:29:07;;;;;;;0.00;0.00;;;;;;;;;;5028903;28;20064;-62
2022/06/13 01:31:48;;;;;;;0.00;0.00;;;;;;;;;;5029910;28;20084;-63
2022/06/13 01:34:25;;;;;;;0.00;0.00;;;;;;;;;;5030635;28;20478;-63
2022/06/13 01:36:53;;;;;;;0.00;0.00;;;;;;;;;;5029245;28;20470;-63
2022/06/13 01:39:35;;;;;;;0.00;0.00;;;;;;;;;;5028268;28;20029;-63
2022/06/13 01:42:03;;;;;;;0.00;0.00;;;;;;;;;;5029122;28;20017;-62
2022/06/13 01:44:40;;;;;;;0.00;0.00;;;;;;;;;;5028307;28;20067;-61
2022/06/13 01:47:13;;;;;;;0.00;0.00;;;;;;;;;;5029380;28;20053;-62
2022/06/13 01:50:11;;;;;;;0.00;0.00;;;;;;;;;;5028788;28;20112;-62
2022/06/13 01:52:54;;;;;;;0.00;0.00;;;;;;;;;;5004761;28;20087;-66
2022/06/13 01:55:20;;;;;;;0.00;0.00;;;;;;;;;;5029056;28;20040;-63
2022/06/13 01:57:53;;;;;;;0.00;0.00;;;;;;;;;;5028399;28;20423;-61
2022/06/13 02:00:31;;;;;;;0.00;0.00;;;;;;;;;;5029953;28;20049;-63
2022/06/13 02:03:17;;;;;;;0.00;0.00;;;;;;;;;;5027978;28;20026;-61
2022/06/13 02:06:05;;;;;;;0.20;0.20;;;;;;;;;;5028863;28;20171;-62
2022/06/13 02:08:51;;;;;;;0.00;0.00;;;;;;;;;;5028525;28;20024;-64
2022/06/13 02:11:23;;;;;;;0.52;0.52;;;;;;;;;;5027547;28;20105;-62
2022/06/13 02:13:52;;;;;;;0.00;0.00;;;;;;;;;;5026123;28;20017;-62
2022/06/13 02:16:19;;;;;;;0.00;0.00;;;;;;;;;;5029320;28;20072;-63
2022/06/13 02:18:50;;;;;;;0.00;0.00;;;;;;;;;;5027334;28;20116;-62
2022/06/13 02:21:16;;;;;;;0.00;0.00;;;;;;;;;;5028675;28;20044;-62
2022/06/13 02:23:51;;;;;;;0.10;0.10;;;;;;;;;;5028519;28;20618;-62
2022/06/13 02:26:21;;;;;;;0.00;0.00;;;;;;;;;;5027254;28;20024;-60
2022/06/13 02:28:59;;;;;;;0.10;0.10;;;;;;;;;;5027858;28;20517;-62
2022/06/13 02:31:29;;;;;;;0.00;0.00;;;;;;;;;;5029462;28;20474;-64
2022/06/13 02:34:12;;;;;;;0.00;0.00;;;;;;;;;;5028398;28;20605;-64
2022/06/13 02:36:40;;;;;;;0.00;0.00;;;;;;;;;;5026961;28;20026;-63
2022/06/13 02:39:09;;;;;;;0.00;0.00;;;;;;;;;;5028454;28;20087;-63
2022/06/13 02:41:40;;;;;;;0.00;0.00;;;;;;;;;;5027633;28;20087;-63
2022/06/13 02:44:25;;;;;;;0.00;0.00;;;;;;;;;;5029483;28;20025;-64
2022/06/13 02:46:54;;;;;;;0.00;0.00;;;;;;;;;;5027575;28;20044;-64
2022/06/13 02:49:57;;;;;;;0.08;0.08;;;;;;;;;;5026754;28;20405;-63
2022/06/13 02:52:29;;;;;;;0.00;0.00;;;;;;;;;;4966561;28;20063;-63
2022/06/13 02:54:56;;;;;;;0.00;0.00;;;;;;;;;;4984659;28;20034;-64
2022/06/13 02:57:34;;;;;;;0.00;0.00;;;;;;;;;;5008182;28;20482;-64
2022/06/13 02:59:59;;;;;;;0.00;0.00;;;;;;;;;;5028597;28;20119;-62
2022/06/13 03:02:33;;;;;;;0.30;0.30;;;;;;;;;;5029380;28;20090;-64
2022/06/13 03:05:01;;;;;;;0.00;0.00;;;;;;;;;;5028246;28;20108;-64
2022/06/13 03:07:34;;;;;;;0.22;0.22;;;;;;;;;;5028325;28;20049;-63
2022/06/13 03:10:03;;;;;;;0.13;0.13;;;;;;;;;;5027486;28;20112;-62
2022/06/13 03:12:36;;;;;;;0.00;0.00;;;;;;;;;;5029529;28;20706;-61
2022/06/13 03:15:06;;;;;;;0.00;0.00;;;;;;;;;;5027872;28;20029;-61
2022/06/13 03:17:36;;;;;;;0.00;0.00;;;;;;;;;;5027301;28;20084;-61
2022/06/13 03:20:04;;;;;;;0.03;0.03;;;;;;;;;;5028157;28;20051;-60
2022/06/13 03:22:48;;;;;;;0.00;0.00;;;;;;;;;;5028174;28;20029;-62
2022/06/13 03:25:19;;;;;;;0.30;0.30;;;;;;;;;;5029777;28;20033;-60
2022/06/13 03:27:50;;;;;;;0.00;0.00;;;;;;;;;;5027448;28;20025;-61
2022/06/13 03:30:17;;;;;;;0.00;0.00;;;;;;;;;;5029282;28;20017;-61
2022/06/13 03:33:40;;;;;;;0.00;0.00;;;;;;;;;;5028905;28;20113;-61
2022/06/13 03:35:35;;;;;;;0.00;0.00;;;;;;;;;;5027093;28;20041;-60
2022/06/13 03:38:01;;;;;;;0.00;0.00;;;;;;;;;;5028406;28;20022;-61
2022/06/13 03:40:28;;;;;;;0.00;0.00;;;;;;;;;;5026531;28;20426;-64
2022/06/13 03:42:53;;;;;;;0.00;0.00;;;;;;;;;;5027675;28;20032;-62
2022/06/13 03:45:21;;;;;;;0.00;0.00;;;;;;;;;;5028098;28;20386;-62
2022/06/13 03:47:46;;;;;;;0.00;0.00;;;;;;;;;;5027519;28;20045;-62
2022/06/13 03:50:34;;;;;;;0.00;0.00;;;;;;;;;;5028307;28;20423;-63
2022/06/13 03:53:05;;;;;;;0.00;0.00;;;;;;;;;;5026410;28;20268;-62
2022/06/13 03:55:39;;;;;;;0.00;0.00;;;;;;;;;;5027001;28;20494;-62
2022/06/13 03:58:08;;;;;;;0.00;0.00;;;;;;;;;;5027617;28;20076;-61
2022/06/13 04:00:34;;;;;;;;;;;;;;;;;;5027041;28;20027;-61
2022/06/13 04:02:59;;;;;;;0.00;0.00;;;;;;;;;;5030804;28;20305;-62
2022/06/13 04:05:35;;;;;;;0.10;0.10;;;;;;;;;;5031462;28;20025;-62
2022/06/13 04:08:00;;;;;;;0.00;0.00;;;;;;;;;;5031261;28;20030;-63
2022/06/13 04:10:26;;;;;;;0.00;0.00;;;;;;;;;;5030307;28;20109;-62
2022/06/13 04:12:57;;;;;;;0.00;0.00;;;;;;;;;;5030931;28;20577;-62
2022/06/13 04:15:34;;;;;;;0.00;0.00;;;;;;;;;;5031124;28;20025;-62
2022/06/13 04:17:59;;;;;;;0.00;0.00;;;;;;;;;;5030909;28;20108;-62
2022/06/13 04:20:37;;;;;;;0.00;0.00;;;;;;;;;;5030277;28;20104;-62
2022/06/13 04:23:11;;;;;;;0.00;0.00;;;;;;;;;;5030168;28;20021;-63
2022/06/13 04:25:42;;;;;;;0.00;0.00;;;;;;;;;;5030421;28;20029;-63
2022/06/13 04:28:14;;;;;;;0.00;0.00;;;;;;;;;;5030049;28;20021;-62
2022/06/13 04:30:41;;;;;;;0.05;0.05;;;;;;;;;;5030473;28;20029;-63
2022/06/13 04:33:17;;;;;;;0.00;0.00;;;;;;;;;;5030696;28;20025;-63
2022/06/13 04:35:43;;;;;;;0.00;0.00;;;;;;;;;;5029300;28;20053;-64
2022/06/13 04:38:10;;;;;;;0.00;0.00;;;;;;;;;;5031091;28;20056;-63
2022/06/13 04:40:38;;;;;;;0.10;0.10;;;;;;;;;;5029881;28;20060;-63
2022/06/13 04:43:05;;;;;;;0.00;0.00;;;;;;;;;;5030635;28;20378;-63
2022/06/13 04:45:45;;;;;;;0.00;0.00;;;;;;;;;;5030789;28;20455;-62
2022/06/13 04:48:10;;;;;;;0.00;0.00;;;;;;;;;;5029711;28;20017;-64
2022/06/13 04:50:37;;;;;;;0.05;0.05;;;;;;;;;;5029368;28;20041;-63
2022/06/13 04:53:05;;;;;;;0.00;0.00;;;;;;;;;;5031286;28;20071;-63
2022/06/13 04:55:38;;;;;;;0.05;0.05;;;;;;;;;;5031298;28;20029;-63
2022/06/13 04:58:04;;;;;;;0.00;0.00;;;;;;;;;;5029420;28;20053;-62
2022/06/13 05:00:30;;;;;;;0.00;0.00;;;;;;;;;;5030286;28;20026;-63
2022/06/13 05:02:56;;;;;;;0.00;0.00;;;;;;;;;;5031182;28;20056;-61
2022/06/13 05:05:29;;;;;;;0.00;0.00;;;;;;;;;;5030227;28;20434;-61
2022/06/13 05:07:54;;;;;;;0.00;0.00;;;;;;;;;;5029431;28;20048;-64
2022/06/13 05:10:21;;;;;;;0.00;0.00;;;;;;;;;;5029618;28;20433;-62
2022/06/13 05:12:47;;;;;;;0.00;0.00;;;;;;;;;;5028554;28;20095;-64
2022/06/13 05:15:12;;;;;;;0.00;0.00;;;;;;;;;;5029958;28;20018;-63
2022/06/13 05:17:56;;;;;;;0.00;0.00;;;;;;;;;;5028667;28;20104;-63
2022/06/13 05:20:40;;;;;;;0.00;0.00;;;;;;;;;;5031704;28;20640;-63
2022/06/13 05:23:17;;;;;;;0.00;0.00;;;;;;;;;;5029923;28;20013;-61
2022/06/13 05:25:53;;;;;;;0.00;0.00;;;;;;;;;;5029125;28;20017;-61
2022/06/13 05:28:21;;;;;;;0.20;0.20;;;;;;;;;;5031245;28;20021;-61
2022/06/13 05:30:47;;;;;;;0.00;0.00;;;;;;;;;;5029100;28;20029;-62
2022/06/13 05:33:14;;;;;;;1.23;0.95;;;;;;;;;;5028362;28;20577;-61
2022/06/13 05:35:43;;;;;;;0.00;0.00;;;;;;;;;;5028463;28;20033;-62
2022/06/13 05:38:14;;;;;;;0.00;0.00;;;;;;;;;;5027124;28;20026;-61
2022/06/13 05:40:39;;;;;;;0.00;0.00;;;;;;;;;;5028740;28;20029;-61
2022/06/13 05:43:04;;;;;;;0.00;0.00;;;;;;;;;;5029469;28;20466;-62
2022/06/13 05:45:29;;;;;;;0.00;0.00;;;;;;;;;;5029262;28;20026;-61
2022/06/13 05:47:55;;;;;;;0.65;0.43;;;;;;;;;;5027168;28;20038;-61
2022/06/13 05:50:22;;;;;;;0.00;0.00;;;;;;;;;;5029296;28;20044;-60
2022/06/13 05:52:48;;;;;;;0.00;0.00;;;;;;;;;;5029158;28;20112;-60
2022/06/13 05:55:13;;;;;;;0.05;0.05;;;;;;;;;;5028642;28;20132;-61
2022/06/13 05:57:39;;;;;;;0.15;0.15;;;;;;;;;;5027912;28;20053;-60
2022/06/13 06:00:05;;;;;;;0.25;0.25;;;;;;;;;;5028325;28;20029;-61
2022/06/13 06:02:30;;;;;;;0.10;0.10;;;;;;;;;;5029440;28;20017;-62
2022/06/13 06:04:56;;;;;;;0.00;0.00;;;;;;;;;;5028481;28;20490;-61
2022/06/13 06:07:21;;;;;;;2.72;0.57;;;;;;;;;;5028929;28;20740;-61
2022/06/13 06:09:46;;;;;;;0.00;0.00;;;;;;;;;;5027226;28;20371;-60
2022/06/13 06:12:11;;;;;;;0.20;0.20;;;;;;;;;;5028579;28;20025;-61
2022/06/13 06:14:37;;;;;;;0.00;0.00;;;;;;;;;;5028106;28;20031;-62
2022/06/13 06:17:02;;;;;;;0.47;0.32;;;;;;;;;;5025709;28;20042;-63
2022/06/13 06:19:27;;;;;;;0.30;0.30;;;;;;;;;;5028367;28;20037;-63
2022/06/13 06:21:52;;;;;;;4.70;0.25;;;;;;;;;;5027810;28;20470;-63
2022/06/13 06:24:18;;;;;;;1.98;0.70;;;;;;;;;;5027734;28;20062;-62
2022/06/13 06:26:43;;;;;;;0.00;0.00;;;;;;;;;;5027160;28;20029;-63
2022/06/13 06:29:08;;;;;;;0.00;0.00;;;;;;;;;;5028141;28;20286;-62
2022/06/13 06:31:34;;;;;;;1.75;1.55;;;;;;;;;;5027863;28;20029;-62
2022/06/13 06:33:59;;;;;;;0.00;0.00;;;;;;;;;;5027187;28;20382;-63
2022/06/13 06:36:24;;;;;;;0.05;0.05;;;;;;;;;;5028304;28;20032;-62
2022/06/13 06:38:50;;;;;;;0.10;0.10;;;;;;;;;;5027408;28;20026;-63
2022/06/13 06:41:15;;;;;;;0.47;0.47;;;;;;;;;;5027608;28;20021;-61
2022/06/13 06:43:41;;;;;;;0.00;0.00;;;;;;;;;;5027674;28;20010;-62
2022/06/13 06:46:08;;;;;;;0.00;0.00;;;;;;;;;;5026388;28;20362;-62
2022/06/13 06:48:33;;;;;;;0.20;0.20;;;;;;;;;;5027975;28;20385;-62
2022/06/13 06:50:58;;;;;;;0.28;0.28;;;;;;;;;;5027709;28;20021;-66
2022/06/13 06:53:25;;;;;;;0.00;0.00;;;;;;;;;;5026521;28;20151;-65
2022/06/13 07:01:19;;;;;;;0.05;0.05;;;;;;;;;;5024706;28;20076;-63
2022/06/13 07:03:45;;;;;;;0.00;0.00;;;;;;;;;;5026258;28;20112;-61
2022/06/13 07:06:11;;;;;;;0.73;0.25;;;;;;;;;;5026257;28;20105;-59
2022/06/13 07:08:36;;;;;;;0.00;0.00;;;;;;;;;;5025377;28;20112;-60
2022/06/13 07:32:44;;;;;;;0.00;0.00;;;;;;;;;;5030635;28;20080;-59
2022/06/13 07:35:10;;;;;;;0.17;0.17;;;;;;;;;;5027705;28;20045;-59
2022/06/13 07:40:19;;;;;;;4.50;0.95;;;;;;;;;;5031963;28;20374;-58
2022/06/13 07:42:48;;;;;;;0.00;0.00;;;;;;;;;;5031515;28;20017;-58
2022/06/13 07:45:15;;;;;;;0.00;0.00;;;;;;;;;;5031605;28;20017;-59
2022/06/13 07:47:41;;;;;;;0.17;0.17;;;;;;;;;;5031284;28;20025;-58
2022/06/13 07:50:06;;;;;;;0.00;0.00;;;;;;;;;;5031057;28;20092;-58
2022/06/13 07:52:32;;;;;;;8.82;0.35;;;;;;;;;;5031807;28;20021;-57
2022/06/13 07:54:57;;;;;;;0.10;0.10;;;;;;;;;;5031477;28;20059;-59
2022/06/13 07:57:23;;;;;;;1.05;1.05;;;;;;;;;;5031670;28;20048;-58
2022/06/13 07:59:48;;;;;;;3.30;0.98;;;;;;;;;;5030895;28;20021;-57
2022/06/13 08:02:17;;;;;;;0.10;0.10;;;;;;;;;;5031268;28;20028;-59
2022/06/13 08:04:42;;;;;;;0.00;0.00;;;;;;;;;;5030734;28;20572;-59
2022/06/13 08:07:11;;;;;;;0.00;0.00;;;;;;;;;;5030046;28;20018;-58
2022/06/13 08:09:37;;;;;;;0.00;0.00;;;;;;;;;;5031052;28;20017;-57
2022/06/13 08:12:03;;;;;;;0.15;0.05;;;;;;;;;;5030487;28;20025;-59
2022/06/13 08:14:28;;;;;;;0.00;0.00;;;;;;;;;;5030775;28;20848;-58
2022/06/13 08:16:55;;;;;;;1.45;0.77;;;;;;;;;;5031450;28;20486;-58
2022/06/13 08:19:20;;;;;;;0.45;0.45;;;;;;;;;;5031292;28;20021;-59
2022/06/13 08:21:45;;;;;;;0.75;0.70;;;;;;;;;;5031498;28;20028;-58
2022/06/13 08:24:11;;;;;;;3.38;3.25;;;;;;;;;;5031583;28;20458;-58
2022/06/13 08:26:36;;;;;;;0.00;0.00;;;;;;;;;;5031647;28;20025;-58
2022/06/13 08:29:03;;;;;;;0.10;0.10;;;;;;;;;;5030939;28;20092;-58
2022/06/13 08:31:29;;;;;;;0.00;0.00;;;;;;;;;;5030598;28;20312;-59
2022/06/13 08:33:54;;;;;;;0.00;0.00;;;;;;;;;;5030861;28;20104;-59
2022/06/13 08:36:21;;;;;;;3.15;3.03;;;;;;;;;;5031404;28;20256;-59
2022/06/13 08:38:46;;;;;;;0.00;0.00;;;;;;;;;;5030621;28;20067;-58
2022/06/13 08:41:11;;;;;;;0.10;0.10;;;;;;;;;;5031358;28;20025;-59
2022/06/13 08:43:40;;;;;;;0.10;0.10;;;;;;;;;;5030918;28;20366;-59
2022/06/13 08:46:08;;;;;;;0.10;0.10;;;;;;;;;;5030653;28;20029;-59
2022/06/13 08:48:39;;;;;;;0.00;0.00;;;;;;;;;;5030403;28;20111;-59
2022/06/13 08:51:09;;;;;;;1.17;0.20;;;;;;;;;;5030780;28;20032;-59
2022/06/13 08:53:41;;;;;;;1.45;0.52;;;;;;;;;;5030798;28;20029;-58
2022/06/13 08:56:12;;;;;;;0.00;0.00;;;;;;;;;;5030724;28;20029;-59
2022/06/13 08:58:37;;;;;;;0.00;0.00;;;;;;;;;;5030182;28;20020;-60
2022/06/13 09:01:13;;;;;;;1.38;0.85;;;;;;;;;;5030288;28;20025;-60
2022/06/13 09:03:57;;;;;;;0.30;0.00;;;;;;;;;;5028720;28;20134;-59
2022/06/13 09:06:28;;;;;;;0.00;0.00;;;;;;;;;;5030900;28;20025;-60
2022/06/13 09:08:57;;;;;;;0.28;0.28;;;;;;;;;;5030387;28;20059;-60
2022/06/13 09:11:24;;;;;;;0.00;0.00;;;;;;;;;;5031109;28;20493;-59
2022/06/13 09:14:16;;;;;;;0.00;0.00;;;;;;;;;;5030176;28;20029;-59
2022/06/13 09:16:44;;;;;;;0.00;0.00;;;;;;;;;;5025282;28;20037;-57
2022/06/13 09:19:32;;;;;;;0.00;0.00;;;;;;;;;;5029476;28;20064;-59
2022/06/13 09:22:03;;;;;;;0.15;0.15;;;;;;;;;;5029646;28;20031;-59
2022/06/13 09:24:32;;;;;;;0.00;0.00;;;;;;;;;;5030405;28;20025;-59
2022/06/13 09:27:02;;;;;;;0.00;0.00;;;;;;;;;;5027629;28;20029;-58
2022/06/13 09:29:30;;;;;;;0.38;0.17;;;;;;;;;;5025424;28;20041;-61
2022/06/13 09:32:21;;;;;;;1.00;0.25;;;;;;;;;;5024764;28;20065;-59
2022/06/13 09:34:48;;;;;;;0.00;0.00;;;;;;;;;;5020717;28;20025;-59
2022/06/13 09:37:16;;;;;;;0.00;0.00;;;;;;;;;;5027395;28;20033;-60
2022/06/13 09:39:41;;;;;;;0.00;0.00;;;;;;;;;;5027829;28;20471;-60
2022/06/13 09:42:09;;;;;;;0.88;0.88;;;;;;;;;;5027150;28;20477;-59
2022/06/13 09:45:07;;;;;;;1.02;0.80;;;;;;;;;;5028735;28;20475;-61
2022/06/13 09:47:46;;;;;;;0.08;0.08;;;;;;;;;;4995252;28;20116;-59
2022/06/13 09:50:30;;;;;;;0.00;0.00;;;;;;;;;;5028468;28;20101;-59
2022/06/13 09:53:11;;;;;;;1.08;0.30;;;;;;;;;;5027844;28;20032;-59
2022/06/13 09:56:01;;;;;;;0.10;0.10;;;;;;;;;;5027723;28;20021;-58
2022/06/13 09:58:45;;;;;;;0.22;0.22;;;;;;;;;;5009098;28;20060;-59
2022/06/13 10:01:21;;;;;;;0.00;0.00;;;;;;;;;;5023656;28;20462;-59
2022/06/13 10:03:46;;;;;;;0.22;0.22;;;;;;;;;;5006501;28;20076;-60
2022/06/13 10:06:12;;;;;;;0.00;0.00;;;;;;;;;;5025818;28;20018;-59
2022/06/13 10:08:46;;;;;;;0.30;0.30;;;;;;;;;;5027046;28;20017;-59
2022/06/13 10:11:17;;;;;;;0.00;0.00;;;;;;;;;;5028605;28;20310;-59
2022/06/13 10:13:48;;;;;;;0.17;0.17;;;;;;;;;;5028880;28;20024;-59
2022/06/13 10:16:13;;;;;;;0.08;0.08;;;;;;;;;;5028829;28;20036;-59
2022/06/13 10:18:54;;;;;;;0.00;0.00;;;;;;;;;;5028394;28;20026;-60
2022/06/13 10:21:43;;;;;;;0.00;0.00;;;;;;;;;;5030236;28;20405;-58
2022/06/13 10:24:30;;;;;;;0.00;0.00;;;;;;;;;;5029749;28;20108;-57
2022/06/13 10:27:11;;;;;;;0.30;0.30;;;;;;;;;;5027852;28;20025;-59
2022/06/13 10:29:48;;;;;;;0.00;0.00;;;;;;;;;;5027602;28;20014;-59
2022/06/13 10:32:23;;;;;;;0.20;0.20;;;;;;;;;;5027675;28;20053;-60
2022/06/13 10:35:09;;;;;;;0.00;0.00;;;;;;;;;;5028729;28;20134;-58
2022/06/13 10:37:53;;;;;;;0.10;0.10;;;;;;;;;;5027749;28;20469;-60
2022/06/13 10:40:20;;;;;;;0.85;0.75;;;;;;;;;;5027768;28;20061;-58
2022/06/13 10:42:45;;;;;;;1.40;0.75;;;;;;;;;;5028274;28;20057;-59
2022/06/13 10:45:12;;;;;;;1.17;1.08;;;;;;;;;;5009980;28;20052;-58
2022/06/13 10:47:49;;;;;;;0.13;0.13;;;;;;;;;;5009894;28;20028;-60
2022/06/13 10:50:30;;;;;;;0.47;0.47;;;;;;;;;;5010222;28;20032;-59
2022/06/13 10:52:59;;;;;;;1.75;1.02;;;;;;;;;;5028406;28;20034;-64
2022/06/13 10:55:25;;;;;;;0.00;0.00;;;;;;;;;;5023671;28;20052;-61
2022/06/13 10:57:59;;;;;;;0.52;0.52;;;;;;;;;;5027219;28;20022;-60
2022/06/13 11:00:26;;;;;;;0.75;0.75;;;;;;;;;;5025895;28;20041;-67
2022/06/13 11:03:02;;;;;;;0.00;0.00;;;;;;;;;;5026746;28;20090;-67
2022/06/13 11:05:27;;;;;;;0.00;0.00;;;;;;;;;;5027528;28;20029;-68
2022/06/13 11:07:55;;;;;;;0.00;0.00;;;;;;;;;;5027611;28;20364;-65
2022/06/13 11:10:26;;;;;;;0.32;0.30;;;;;;;;;;5028262;28;20056;-63
2022/06/13 11:12:52;;;;;;;0.40;0.40;;;;;;;;;;5031824;28;20017;-62
2022/06/13 11:23:50;;;;;;;0.08;0.08;;;;;;;;;;5031189;28;20130;-64
2022/06/13 11:29:02;;;;;;;0.88;0.88;;;;;;;;;;5030859;28;20029;-63
2022/06/13 11:31:27;;;;;;;0.32;0.32;;;;;;;;;;5014525;28;20087;-63
2022/06/13 11:33:53;;;;;;;0.83;0.83;;;;;;;;;;5031610;28;20056;-62
2022/06/13 11:36:21;;;;;;;7.40;1.00;;;;;;;;;;5031303;28;20271;-60
2022/06/13 11:38:52;;;;;;;0.00;0.00;;;;;;;;;;5033528;28;20097;-61
2022/06/13 11:41:19;;;;;;;2.45;1.95;;;;;;;;;;5031720;28;20045;-67
2022/06/13 11:43:48;;;;;;;0.20;0.20;;;;;;;;;;5031208;28;20028;-64
2022/06/13 11:46:30;;;;;;;2.50;0.35;;;;;;;;;;5031781;28;20021;-64
2022/06/13 11:48:56;;;;;;;0.00;0.00;;;;;;;;;;5030413;28;20037;-64
2022/06/13 11:51:25;;;;;;;0.52;0.52;;;;;;;;;;5030149;28;20036;-63
2022/06/13 11:53:55;;;;;;;1.20;1.10;;;;;;;;;;5031271;28;20489;-64
2022/06/13 11:56:26;;;;;;;1.25;0.20;;;;;;;;;;5031764;28;20025;-62
2022/06/13 11:58:52;;;;;;;2.28;0.90;;;;;;;;;;5030668;28;20147;-62
2022/06/13 12:01:32;;;;;;;0.20;0.20;;;;;;;;;;5031101;28;20037;-65
2022/06/13 12:03:57;;;;;;;0.80;0.45;;;;;;;;;;5029654;28;20032;-64
2022/06/13 12:06:22;;;;;;;0.00;0.00;;;;;;;;;;5031946;28;20022;-64
2022/06/13 12:08:58;;;;;;;0.05;0.05;;;;;;;;;;5031822;28;20021;-63
2022/06/13 12:11:23;;;;;;;0.30;0.30;;;;;;;;;;5030768;28;20037;-64
2022/06/13 12:13:49;;;;;;;5.47;1.90;;;;;;;;;;5030542;28;20025;-64
2022/06/13 12:16:27;;;;;;;0.47;0.47;;;;;;;;;;5031252;28;20032;-65
2022/06/13 12:19:11;;;;;;;0.35;0.35;;;;;;;;;;5030814;28;20013;-65
2022/06/13 12:21:52;;;;;;;0.00;0.00;;;;;;;;;;5030506;28;20026;-65
2022/06/13 12:24:34;;;;;;;0.00;0.00;;;;;;;;;;5031097;28;20075;-66
2022/06/13 12:27:02;;;;;;;0.00;0.00;;;;;;;;;;5029297;28;20056;-64
2022/06/13 12:29:46;;;;;;;7.25;4.43;;;;;;;;;;5031596;28;20808;-65
2022/06/13 12:32:14;;;;;;;0.00;0.00;;;;;;;;;;5029599;28;20050;-62
2022/06/13 12:34:54;;;;;;;0.00;0.00;;;;;;;;;;5029776;28;20394;-62
2022/06/13 12:37:19;;;;;;;0.00;0.00;;;;;;;;;;5029579;28;20041;-63
2022/06/13 12:39:56;;;;;;;0.00;0.00;;;;;;;;;;5031059;28;20029;-63
2022/06/13 12:42:21;;;;;;;1.45;0.85;;;;;;;;;;5029702;28;20052;-65
2022/06/13 12:45:06;;;;;;;0.20;0.20;;;;;;;;;;5030187;28;20072;-62
2022/06/13 12:47:43;;;;;;;0.10;0.10;;;;;;;;;;5030942;28;20284;-63
2022/06/13 12:50:30;;;;;;;0.17;0.17;;;;;;;;;;5029357;28;20032;-62
2022/06/13 12:53:14;;;;;;;0.00;0.00;;;;;;;;;;5029337;28;20101;-62
2022/06/13 12:55:46;;;;;;;0.00;0.00;;;;;;;;;;5030492;28;20044;-63
2022/06/13 12:58:20;;;;;;;0.00;0.00;;;;;;;;;;5029970;28;20041;-64
2022/06/13 13:01:08;;;;;;;0.00;0.00;;;;;;;;;;5030657;28;20029;-66
2022/06/13 13:03:56;;;;;;;0.00;0.00;;;;;;;;;;5010928;28;20088;-66
2022/06/13 13:06:31;;;;;;;0.13;0.13;;;;;;;;;;5030262;28;20025;-65
2022/06/13 13:09:20;;;;;;;0.10;0.10;;;;;;;;;;5030309;28;20074;-64
2022/06/13 13:11:45;;;;;;;0.00;0.00;;;;;;;;;;5026472;28;20037;-64
2022/06/13 13:14:29;;;;;;;0.85;0.85;;;;;;;;;;5028238;28;20029;-63
2022/06/13 13:16:58;;;;;;;2.15;0.60;;;;;;;;;;5029805;28;20029;-62
2022/06/13 13:19:47;;;;;;;2.35;2.25;;;;;;;;;;5027176;28;20576;-63
2022/06/13 13:22:21;;;;;;;0.00;0.00;;;;;;;;;;5029453;28;20100;-62
2022/06/13 13:24:49;;;;;;;0.82;0.82;;;;;;;;;;5027521;28;20093;-62
2022/06/13 13:27:16;;;;;;;0.00;0.00;;;;;;;;;;5028288;28;21406;-66
2022/06/13 13:30:00;;;;;;;0.00;0.00;;;;;;;;;;5013437;28;20421;-66
2022/06/13 13:32:25;;;;;;;0.00;0.00;;;;;;;;;;5018800;28;20058;-66
2022/06/13 13:34:56;;;;;;;0.10;0.10;;;;;;;;;;5028852;28;20037;-62
2022/06/13 13:37:32;;;;;;;0.00;0.00;;;;;;;;;;5026001;28;20112;-61
2022/06/13 13:40:09;;;;;;;0.00;0.00;;;;;;;;;;5027375;28;20093;-63
2022/06/13 13:42:51;;;;;;;0.40;0.40;;;;;;;;;;5030215;28;20013;-64
2022/06/13 13:45:20;;;;;;;0.00;0.00;;;;;;;;;;5029316;28;20439;-64
2022/06/13 13:47:48;;;;;;;0.10;0.10;;;;;;;;;;5028183;28;20053;-62
2022/06/13 13:50:16;;;;;;;0.00;0.00;;;;;;;;;;5028784;28;20043;-58
2022/06/13 13:52:45;;;;;;;0.00;0.00;;;;;;;;;;5029356;28;20025;-62
2022/06/13 13:55:28;;;;;;;0.00;0.00;;;;;;;;;;5070352;27;1288272;-63
2022/06/13 13:58:00;;;;;;;0.30;0.30;;;;;;;;;;5111016;28;20480;-64
2022/06/13 14:16:45;;;;;;;0.45;0.45;;;;;;;;;;4986372;28;20069;-65
2022/06/13 14:19:19;;;;;;;0.98;0.98;;;;;;;;;;4986049;28;20037;-61
2022/06/13 14:31:06;;;;;;;0.10;0.10;;;;;;;;;;4983444;28;20037;-62
2022/06/13 14:37:12;;;;;;;0.00;0.00;;;;;;;;;;4982031;28;20041;-64
2022/06/13 14:39:40;;;;;;;0.00;0.00;;;;;;;;;;4940983;28;20027;-62
2022/06/13 14:42:22;;;;;;;0.20;0.20;;;;;;;;;;4941420;28;20097;-63
2022/06/13 14:45:06;;;;;;;0.30;0.30;;;;;;;;;;4945003;28;20091;-62
2022/06/13 14:47:34;;;;;;;0.00;0.00;;;;;;;;;;4939852;28;20505;-62
2022/06/13 14:49:59;;;;;;;0.85;0.85;;;;;;;;;;4935090;28;20042;-61
2022/06/13 14:52:28;;;;;;;0.60;0.60;;;;;;;;;;4938213;28;20035;-61
2022/06/13 14:55:05;;;;;;;0.00;0.00;;;;;;;;;;4936916;28;20607;-63
2022/06/13 14:57:49;;;;;;;0.00;0.00;;;;;;;;;;4937090;28;20520;-67
2022/06/13 15:00:20;;;;;;;0.00;0.00;;;;;;;;;;4942695;28;20035;-62
2022/06/13 15:02:56;;;;;;;1.65;1.55;;;;;;;;;;4939971;28;20072;-61
2022/06/13 15:05:30;;;;;;;0.52;0.52;;;;;;;;;;4932767;28;20027;-63
2022/06/13 15:08:17;;;;;;;0.30;0.30;;;;;;;;;;4924948;29;20024;-61
2022/06/13 15:10:49;;;;;;;2.95;1.08;;;;;;;;;;4954830;28;20054;-60
2022/06/13 15:13:15;;;;;;;0.10;0.10;;;;;;;;;;4971314;28;20117;-61
2022/06/13 15:15:41;;;;;;;2.72;2.55;;;;;;;;;;4972333;28;20042;-61
2022/06/13 15:18:07;;;;;;;0.65;0.65;;;;;;;;;;4991428;28;20105;-61
2022/06/13 15:20:34;;;;;;;0.88;0.88;;;;;;;;;;4970655;28;20101;-63
2022/06/13 15:23:08;;;;;;;0.00;0.00;;;;;;;;;;4992036;28;20109;-62
2022/06/13 15:25:44;;;;;;;0.00;0.00;;;;;;;;;;4992854;28;20034;-63
2022/06/13 15:28:11;;;;;;;0.00;0.00;;;;;;;;;;4989732;28;20093;-63
2022/06/13 15:30:37;;;;;;;0.10;0.10;;;;;;;;;;4992248;28;20113;-62
2022/06/13 15:33:11;;;;;;;0.00;0.00;;;;;;;;;;4991400;28;20069;-63
2022/06/13 15:35:46;;;;;;;0.00;0.00;;;;;;;;;;4973519;28;20041;-63
2022/06/13 15:38:12;;;;;;;0.20;0.20;;;;;;;;;;4992415;28;20027;-62
2022/06/13 15:40:37;;;;;;;2.58;2.38;;;;;;;;;;4989734;28;20109;-62
2022/06/13 15:43:03;;;;;;;0.10;0.10;;;;;;;;;;4991298;28;20535;-65
2022/06/13 15:45:33;;;;;;;0.55;0.55;;;;;;;;;;4992028;28;20029;-63
2022/06/13 15:47:58;;;;;;;0.00;0.00;;;;;;;;;;4987110;28;20022;-63
2022/06/13 15:50:25;;;;;;;0.57;0.57;;;;;;;;;;4990315;28;20036;-63
2022/06/13 15:52:52;;;;;;;0.68;0.68;;;;;;;;;;4990278;28;20957;-64
2022/06/13 15:55:20;;;;;;;0.00;0.00;;;;;;;;;;4988631;28;20092;-64
2022/06/13 15:57:51;;;;;;;0.00;0.00;;;;;;;;;;4990584;28;20108;-63
2022/06/13 16:00:28;;;;;;;0.82;0.70;;;;;;;;;;4990943;28;20484;-65
2022/06/13 16:02:55;;;;;;;0.10;0.10;;;;;;;;;;4989920;28;20116;-66
2022/06/13 16:05:21;;;;;;;9.95;0.98;;;;;;;;;;4991147;28;20030;-63
2022/06/13 16:07:51;;;;;;;0.28;0.28;;;;;;;;;;4990338;28;20050;-62
2022/06/13 16:10:18;;;;;;;0.00;0.00;;;;;;;;;;4992026;28;20030;-63
2022/06/13 16:12:45;;;;;;;3.25;1.10;;;;;;;;;;4990558;28;20099;-63
2022/06/13 16:15:16;;;;;;;0.63;0.30;;;;;;;;;;4991574;28;20030;-62